sensor_id;sensor_type;location;lat;lon;timestamp;P1;durP1;ratioP1;P2;durP2;ratioP2
22449;SDS011;11392;57.390;-2.468;2023-03-01T00:01:37;0.60;;;0.60;;
22449;SDS011;11392;57.390;-2.468;2023-03-01T00:04:04;0.38;;;0.35;;
22449;SDS011;11392;57.390;-2.468;2023-03-01T00:06:31;0.30;;;0.30;;
22449;SDS011;11392;57.390;-2.468;2023-03-01T00:08:58;1.17;;;0.50;;
22449;SDS011;11392;57.390;-2.468;2023-03-01T00:11:26;0.35;;;0.35;;
22449;SDS011;11392;57.390;-2.468;2023-03-01T00:13:55;0.40;;;0.40;;
22449;SDS011;11392;57.390;-2.468;2023-03-01T00:16:31;1.45;;;0.20;;
22449;SDS011;11392;57.390;-2.468;2023-03-01T00:19:02;1.58;;;0.40;;
22449;SDS011;11392;57.390;-2.468;2023-03-01T00:21:29;0.40;;;0.40;;
22449;SDS011;11392;57.390;-2.468;2023-03-01T00:23:56;0.80;;;0.45;;
22449;SDS011;11392;57.390;-2.468;2023-03-01T00:26:24;0.88;;;0.40;;
22449;SDS011;11392;57.390;-2.468;2023-03-01T00:28:53;1.90;;;0.93;;
22449;SDS011;11392;57.390;-2.468;2023-03-01T00:31:23;0.80;;;0.65;;
22449;SDS011;11392;57.390;-2.468;2023-03-01T00:33:52;1.75;;;0.40;;
22449;SDS011;11392;57.390;-2.468;2023-03-01T00:36:24;1.92;;;0.50;;
22449;SDS011;11392;57.390;-2.468;2023-03-01T00:38:53;0.68;;;0.60;;
22449;SDS011;11392;57.390;-2.468;2023-03-01T00:41:20;1.88;;;0.60;;
22449;SDS011;11392;57.390;-2.468;2023-03-01T00:43:53;0.55;;;0.45;;
22449;SDS011;11392;57.390;-2.468;2023-03-01T00:46:21;0.95;;;0.40;;
22449;SDS011;11392;57.390;-2.468;2023-03-01T00:48:53;0.63;;;0.50;;
22449;SDS011;11392;57.390;-2.468;2023-03-01T00:51:27;0.30;;;0.30;;
22449;SDS011;11392;57.390;-2.468;2023-03-01T00:53:56;1.77;;;0.50;;
22449;SDS011;11392;57.390;-2.468;2023-03-01T00:56:25;0.95;;;0.40;;
22449;SDS011;11392;57.390;-2.468;2023-03-01T00:58:52;3.95;;;0.60;;
22449;SDS011;11392;57.390;-2.468;2023-03-01T01:01:21;0.93;;;0.60;;
22449;SDS011;11392;57.390;-2.468;2023-03-01T01:03:51;1.10;;;0.60;;
22449;SDS011;11392;57.390;-2.468;2023-03-01T01:06:27;0.95;;;0.70;;
22449;SDS011;11392;57.390;-2.468;2023-03-01T01:09:11;1.55;;;0.52;;
22449;SDS011;11392;57.390;-2.468;2023-03-01T01:11:47;0.60;;;0.40;;
22449;SDS011;11392;57.390;-2.468;2023-03-01T01:14:15;2.78;;;0.50;;
22449;SDS011;11392;57.390;-2.468;2023-03-01T01:16:43;0.95;;;0.50;;
22449;SDS011;11392;57.390;-2.468;2023-03-01T01:19:10;0.82;;;0.63;;
22449;SDS011;11392;57.390;-2.468;2023-03-01T01:21:38;4.95;;;1.02;;
22449;SDS011;11392;57.390;-2.468;2023-03-01T01:24:06;1.70;;;0.50;;
22449;SDS011;11392;57.390;-2.468;2023-03-01T01:26:33;1.10;;;0.60;;
22449;SDS011;11392;57.390;-2.468;2023-03-01T01:29:01;1.17;;;0.50;;
22449;SDS011;11392;57.390;-2.468;2023-03-01T01:31:30;0.50;;;0.50;;
22449;SDS011;11392;57.390;-2.468;2023-03-01T01:33:59;0.65;;;0.47;;
22449;SDS011;11392;57.390;-2.468;2023-03-01T01:36:27;1.25;;;0.63;;
22449;SDS011;11392;57.390;-2.468;2023-03-01T01:38:55;1.30;;;0.70;;
22449;SDS011;11392;57.390;-2.468;2023-03-01T01:41:22;0.57;;;0.47;;
22449;SDS011;11392;57.390;-2.468;2023-03-01T01:47:19;1.17;;;0.60;;
22449;SDS011;11392;57.390;-2.468;2023-03-01T01:49:37;1.95;;;0.63;;
22449;SDS011;11392;57.390;-2.468;2023-03-01T01:52:11;4.72;;;0.85;;
22449;SDS011;11392;57.390;-2.468;2023-03-01T01:57:32;1.48;;;0.60;;
22449;SDS011;11392;57.390;-2.468;2023-03-01T02:00:10;1.08;;;0.60;;
22449;SDS011;11392;57.390;-2.468;2023-03-01T02:02:46;1.85;;;0.70;;
22449;SDS011;11392;57.390;-2.468;2023-03-01T02:05:26;0.60;;;0.60;;
22449;SDS011;11392;57.390;-2.468;2023-03-01T02:08:01;1.65;;;0.70;;
22449;SDS011;11392;57.390;-2.468;2023-03-01T02:10:28;3.45;;;0.90;;
22449;SDS011;11392;57.390;-2.468;2023-03-01T02:12:59;4.95;;;0.98;;
22449;SDS011;11392;57.390;-2.468;2023-03-01T02:15:27;1.25;;;1.15;;
22449;SDS011;11392;57.390;-2.468;2023-03-01T02:18:00;1.98;;;0.90;;
22449;SDS011;11392;57.390;-2.468;2023-03-01T02:23:26;1.25;;;0.98;;
22449;SDS011;11392;57.390;-2.468;2023-03-01T02:28:31;2.00;;;1.40;;
22449;SDS011;11392;57.390;-2.468;2023-03-01T02:30:59;1.27;;;1.15;;
22449;SDS011;11392;57.390;-2.468;2023-03-01T02:33:47;0.95;;;0.85;;
22449;SDS011;11392;57.390;-2.468;2023-03-01T02:36:15;2.25;;;1.10;;
22449;SDS011;11392;57.390;-2.468;2023-03-01T02:38:46;4.40;;;1.40;;
22449;SDS011;11392;57.390;-2.468;2023-03-01T02:41:14;2.42;;;1.30;;
22449;SDS011;11392;57.390;-2.468;2023-03-01T02:43:43;3.17;;;1.40;;
22449;SDS011;11392;57.390;-2.468;2023-03-01T02:46:18;2.65;;;1.10;;
22449;SDS011;11392;57.390;-2.468;2023-03-01T02:48:47;1.63;;;0.88;;
22449;SDS011;11392;57.390;-2.468;2023-03-01T02:51:18;4.40;;;1.30;;
22449;SDS011;11392;57.390;-2.468;2023-03-01T02:56:22;2.65;;;1.30;;
22449;SDS011;11392;57.390;-2.468;2023-03-01T02:58:49;2.55;;;1.10;;
22449;SDS011;11392;57.390;-2.468;2023-03-01T03:01:18;2.22;;;1.23;;
22449;SDS011;11392;57.390;-2.468;2023-03-01T03:03:46;6.20;;;1.13;;
22449;SDS011;11392;57.390;-2.468;2023-03-01T03:06:13;2.05;;;0.95;;
22449;SDS011;11392;57.390;-2.468;2023-03-01T03:08:40;2.55;;;1.00;;
22449;SDS011;11392;57.390;-2.468;2023-03-01T03:11:07;4.25;;;0.95;;
22449;SDS011;11392;57.390;-2.468;2023-03-01T03:13:34;1.75;;;0.80;;
22449;SDS011;11392;57.390;-2.468;2023-03-01T03:16:01;2.25;;;0.75;;
22449;SDS011;11392;57.390;-2.468;2023-03-01T03:18:29;1.10;;;0.88;;
22449;SDS011;11392;57.390;-2.468;2023-03-01T03:21:02;4.45;;;1.08;;
22449;SDS011;11392;57.390;-2.468;2023-03-01T03:23:29;2.58;;;1.00;;
22449;SDS011;11392;57.390;-2.468;2023-03-01T03:25:56;2.22;;;0.90;;
22449;SDS011;11392;57.390;-2.468;2023-03-01T03:28:23;3.20;;;1.00;;
22449;SDS011;11392;57.390;-2.468;2023-03-01T03:30:50;3.30;;;1.08;;
22449;SDS011;11392;57.390;-2.468;2023-03-01T03:33:17;3.42;;;1.23;;
22449;SDS011;11392;57.390;-2.468;2023-03-01T03:35:45;3.92;;;1.17;;
22449;SDS011;11392;57.390;-2.468;2023-03-01T03:38:15;1.50;;;1.00;;
22449;SDS011;11392;57.390;-2.468;2023-03-01T03:40:52;2.60;;;1.05;;
22449;SDS011;11392;57.390;-2.468;2023-03-01T03:43:31;3.45;;;1.75;;
22449;SDS011;11392;57.390;-2.468;2023-03-01T03:46:03;1.40;;;1.10;;
22449;SDS011;11392;57.390;-2.468;2023-03-01T03:48:34;1.73;;;1.08;;
22449;SDS011;11392;57.390;-2.468;2023-03-01T03:51:03;3.15;;;0.93;;
22449;SDS011;11392;57.390;-2.468;2023-03-01T03:53:32;3.13;;;0.77;;
22449;SDS011;11392;57.390;-2.468;2023-03-01T03:55:59;1.42;;;0.77;;
22449;SDS011;11392;57.390;-2.468;2023-03-01T03:58:26;1.67;;;1.02;;
22449;SDS011;11392;57.390;-2.468;2023-03-01T04:00:54;2.22;;;0.90;;
22449;SDS011;11392;57.390;-2.468;2023-03-01T04:03:23;1.95;;;0.90;;
22449;SDS011;11392;57.390;-2.468;2023-03-01T04:05:51;1.35;;;1.00;;
22449;SDS011;11392;57.390;-2.468;2023-03-01T04:08:20;2.95;;;1.00;;
22449;SDS011;11392;57.390;-2.468;2023-03-01T04:10:49;3.75;;;1.15;;
22449;SDS011;11392;57.390;-2.468;2023-03-01T04:13:19;1.73;;;1.10;;
22449;SDS011;11392;57.390;-2.468;2023-03-01T04:15:48;1.05;;;1.00;;
22449;SDS011;11392;57.390;-2.468;2023-03-01T04:18:17;1.83;;;0.93;;
22449;SDS011;11392;57.390;-2.468;2023-03-01T04:20:46;2.92;;;1.10;;
22449;SDS011;11392;57.390;-2.468;2023-03-01T04:23:19;2.33;;;1.10;;
22449;SDS011;11392;57.390;-2.468;2023-03-01T04:25:57;1.23;;;0.85;;
22449;SDS011;11392;57.390;-2.468;2023-03-01T04:28:35;2.67;;;1.10;;
22449;SDS011;11392;57.390;-2.468;2023-03-01T04:31:09;1.73;;;1.00;;
22449;SDS011;11392;57.390;-2.468;2023-03-01T04:33:47;2.70;;;1.02;;
22449;SDS011;11392;57.390;-2.468;2023-03-01T04:36:18;2.28;;;0.95;;
22449;SDS011;11392;57.390;-2.468;2023-03-01T04:38:47;4.30;;;1.20;;
22449;SDS011;11392;57.390;-2.468;2023-03-01T04:41:16;3.30;;;1.10;;
22449;SDS011;11392;57.390;-2.468;2023-03-01T04:43:44;4.30;;;1.00;;
22449;SDS011;11392;57.390;-2.468;2023-03-01T04:46:16;1.65;;;1.00;;
22449;SDS011;11392;57.390;-2.468;2023-03-01T04:48:45;4.28;;;1.10;;
22449;SDS011;11392;57.390;-2.468;2023-03-01T04:51:13;3.42;;;1.17;;
22449;SDS011;11392;57.390;-2.468;2023-03-01T04:53:41;2.50;;;1.10;;
22449;SDS011;11392;57.390;-2.468;2023-03-01T04:56:09;4.82;;;1.20;;
22449;SDS011;11392;57.390;-2.468;2023-03-01T04:58:36;2.60;;;1.20;;
22449;SDS011;11392;57.390;-2.468;2023-03-01T05:01:14;4.70;;;1.40;;
22449;SDS011;11392;57.390;-2.468;2023-03-01T05:03:43;3.25;;;1.63;;
22449;SDS011;11392;57.390;-2.468;2023-03-01T05:06:12;3.67;;;1.17;;
22449;SDS011;11392;57.390;-2.468;2023-03-01T05:08:40;2.90;;;1.33;;
22449;SDS011;11392;57.390;-2.468;2023-03-01T05:11:08;3.67;;;1.17;;
22449;SDS011;11392;57.390;-2.468;2023-03-01T05:13:36;4.35;;;1.35;;
22449;SDS011;11392;57.390;-2.468;2023-03-01T05:16:04;7.20;;;1.45;;
22449;SDS011;11392;57.390;-2.468;2023-03-01T05:18:33;4.00;;;1.20;;
22449;SDS011;11392;57.390;-2.468;2023-03-01T05:21:07;3.33;;;1.35;;
22449;SDS011;11392;57.390;-2.468;2023-03-01T05:23:36;4.60;;;1.20;;
22449;SDS011;11392;57.390;-2.468;2023-03-01T05:26:04;3.33;;;1.35;;
22449;SDS011;11392;57.390;-2.468;2023-03-01T05:28:36;4.43;;;1.38;;
22449;SDS011;11392;57.390;-2.468;2023-03-01T05:31:04;2.40;;;1.40;;
22449;SDS011;11392;57.390;-2.468;2023-03-01T05:33:36;1.58;;;1.08;;
22449;SDS011;11392;57.390;-2.468;2023-03-01T05:36:04;4.30;;;1.67;;
22449;SDS011;11392;57.390;-2.468;2023-03-01T05:38:36;3.65;;;1.27;;
22449;SDS011;11392;57.390;-2.468;2023-03-01T05:41:03;5.28;;;1.63;;
22449;SDS011;11392;57.390;-2.468;2023-03-01T05:43:30;3.45;;;1.30;;
22449;SDS011;11392;57.390;-2.468;2023-03-01T05:46:00;3.50;;;1.20;;
22449;SDS011;11392;57.390;-2.468;2023-03-01T05:48:27;1.73;;;1.40;;
22449;SDS011;11392;57.390;-2.468;2023-03-01T05:50:54;1.77;;;1.38;;
22449;SDS011;11392;57.390;-2.468;2023-03-01T05:53:26;1.67;;;1.13;;
22449;SDS011;11392;57.390;-2.468;2023-03-01T05:55:53;2.50;;;1.23;;
22449;SDS011;11392;57.390;-2.468;2023-03-01T05:58:20;2.38;;;1.45;;
22449;SDS011;11392;57.390;-2.468;2023-03-01T06:00:48;3.28;;;1.40;;
22449;SDS011;11392;57.390;-2.468;2023-03-01T06:03:16;3.10;;;1.45;;
22449;SDS011;11392;57.390;-2.468;2023-03-01T06:05:44;3.67;;;1.40;;
22449;SDS011;11392;57.390;-2.468;2023-03-01T06:08:11;3.25;;;1.38;;
22449;SDS011;11392;57.390;-2.468;2023-03-01T06:10:39;3.92;;;1.58;;
22449;SDS011;11392;57.390;-2.468;2023-03-01T06:13:07;4.72;;;1.20;;
22449;SDS011;11392;57.390;-2.468;2023-03-01T06:15:34;2.58;;;0.93;;
22449;SDS011;11392;57.390;-2.468;2023-03-01T06:18:02;1.88;;;1.10;;
22449;SDS011;11392;57.390;-2.468;2023-03-01T06:20:29;2.17;;;0.75;;
22449;SDS011;11392;57.390;-2.468;2023-03-01T06:22:56;2.80;;;1.08;;
22449;SDS011;11392;57.390;-2.468;2023-03-01T06:25:24;3.17;;;0.80;;
22449;SDS011;11392;57.390;-2.468;2023-03-01T06:27:52;3.08;;;0.80;;
22449;SDS011;11392;57.390;-2.468;2023-03-01T06:30:20;4.20;;;0.98;;
22449;SDS011;11392;57.390;-2.468;2023-03-01T06:32:48;2.45;;;0.80;;
22449;SDS011;11392;57.390;-2.468;2023-03-01T06:35:16;2.50;;;0.70;;
22449;SDS011;11392;57.390;-2.468;2023-03-01T06:37:44;2.33;;;0.80;;
22449;SDS011;11392;57.390;-2.468;2023-03-01T06:40:12;1.23;;;0.65;;
22449;SDS011;11392;57.390;-2.468;2023-03-01T06:42:41;2.05;;;1.10;;
22449;SDS011;11392;57.390;-2.468;2023-03-01T06:45:09;1.48;;;0.63;;
22449;SDS011;11392;57.390;-2.468;2023-03-01T06:47:36;0.82;;;0.70;;
22449;SDS011;11392;57.390;-2.468;2023-03-01T06:50:04;5.05;;;0.95;;
22449;SDS011;11392;57.390;-2.468;2023-03-01T06:52:31;5.47;;;0.70;;
22449;SDS011;11392;57.390;-2.468;2023-03-01T06:54:58;0.95;;;0.70;;
22449;SDS011;11392;57.390;-2.468;2023-03-01T06:57:26;2.65;;;0.90;;
22449;SDS011;11392;57.390;-2.468;2023-03-01T06:59:53;4.30;;;1.17;;
22449;SDS011;11392;57.390;-2.468;2023-03-01T07:02:20;6.95;;;1.27;;
22449;SDS011;11392;57.390;-2.468;2023-03-01T07:04:48;1.15;;;0.70;;
22449;SDS011;11392;57.390;-2.468;2023-03-01T07:07:16;2.67;;;1.00;;
22449;SDS011;11392;57.390;-2.468;2023-03-01T07:09:44;2.30;;;0.70;;
22449;SDS011;11392;57.390;-2.468;2023-03-01T07:12:12;3.60;;;1.00;;
22449;SDS011;11392;57.390;-2.468;2023-03-01T07:14:39;2.38;;;0.70;;
22449;SDS011;11392;57.390;-2.468;2023-03-01T07:17:06;4.85;;;0.80;;
22449;SDS011;11392;57.390;-2.468;2023-03-01T07:19:33;4.20;;;1.20;;
22449;SDS011;11392;57.390;-2.468;2023-03-01T07:22:00;2.13;;;0.70;;
22449;SDS011;11392;57.390;-2.468;2023-03-01T07:24:27;2.13;;;0.95;;
22449;SDS011;11392;57.390;-2.468;2023-03-01T07:26:54;0.98;;;0.52;;
22449;SDS011;11392;57.390;-2.468;2023-03-01T07:29:21;1.70;;;0.70;;
22449;SDS011;11392;57.390;-2.468;2023-03-01T07:31:48;2.45;;;0.70;;
22449;SDS011;11392;57.390;-2.468;2023-03-01T07:34:16;0.63;;;0.63;;
22449;SDS011;11392;57.390;-2.468;2023-03-01T07:36:43;1.58;;;0.60;;
22449;SDS011;11392;57.390;-2.468;2023-03-01T07:39:11;4.80;;;0.70;;
22449;SDS011;11392;57.390;-2.468;2023-03-01T07:41:38;1.40;;;0.60;;
22449;SDS011;11392;57.390;-2.468;2023-03-01T07:44:05;3.47;;;0.77;;
22449;SDS011;11392;57.390;-2.468;2023-03-01T07:46:32;0.85;;;0.73;;
22449;SDS011;11392;57.390;-2.468;2023-03-01T07:48:59;3.78;;;0.90;;
22449;SDS011;11392;57.390;-2.468;2023-03-01T07:51:26;2.42;;;0.80;;
22449;SDS011;11392;57.390;-2.468;2023-03-01T07:53:53;2.83;;;0.98;;
22449;SDS011;11392;57.390;-2.468;2023-03-01T07:56:20;2.75;;;0.85;;
22449;SDS011;11392;57.390;-2.468;2023-03-01T07:58:48;5.15;;;1.23;;
22449;SDS011;11392;57.390;-2.468;2023-03-01T08:01:18;0.77;;;0.77;;
22449;SDS011;11392;57.390;-2.468;2023-03-01T08:03:46;1.10;;;0.90;;
22449;SDS011;11392;57.390;-2.468;2023-03-01T08:06:14;2.42;;;0.95;;
22449;SDS011;11392;57.390;-2.468;2023-03-01T08:08:43;1.55;;;0.90;;
22449;SDS011;11392;57.390;-2.468;2023-03-01T08:11:11;2.22;;;0.88;;
22449;SDS011;11392;57.390;-2.468;2023-03-01T08:13:39;0.85;;;0.70;;
22449;SDS011;11392;57.390;-2.468;2023-03-01T08:16:10;2.28;;;0.93;;
22449;SDS011;11392;57.390;-2.468;2023-03-01T08:18:39;1.83;;;0.70;;
22449;SDS011;11392;57.390;-2.468;2023-03-01T08:21:07;1.90;;;0.77;;
22449;SDS011;11392;57.390;-2.468;2023-03-01T08:23:37;1.13;;;0.75;;
22449;SDS011;11392;57.390;-2.468;2023-03-01T08:28:33;1.25;;;0.60;;
22449;SDS011;11392;57.390;-2.468;2023-03-01T08:31:00;1.20;;;0.60;;
22449;SDS011;11392;57.390;-2.468;2023-03-01T08:33:28;1.30;;;0.73;;
22449;SDS011;11392;57.390;-2.468;2023-03-01T08:36:02;2.13;;;0.68;;
22449;SDS011;11392;57.390;-2.468;2023-03-01T08:38:30;3.83;;;0.63;;
22449;SDS011;11392;57.390;-2.468;2023-03-01T08:40:59;1.23;;;0.63;;
22449;SDS011;11392;57.390;-2.468;2023-03-01T08:43:27;1.02;;;0.70;;
22449;SDS011;11392;57.390;-2.468;2023-03-01T08:45:54;1.15;;;0.55;;
22449;SDS011;11392;57.390;-2.468;2023-03-01T08:48:21;1.13;;;0.75;;
22449;SDS011;11392;57.390;-2.468;2023-03-01T08:50:48;3.50;;;0.70;;
22449;SDS011;11392;57.390;-2.468;2023-03-01T08:53:15;1.75;;;0.70;;
22449;SDS011;11392;57.390;-2.468;2023-03-01T08:55:42;0.95;;;0.52;;
22449;SDS011;11392;57.390;-2.468;2023-03-01T08:58:09;2.05;;;0.68;;
22449;SDS011;11392;57.390;-2.468;2023-03-01T09:00:36;1.23;;;0.40;;
22449;SDS011;11392;57.390;-2.468;2023-03-01T09:03:03;2.75;;;0.73;;
22449;SDS011;11392;57.390;-2.468;2023-03-01T09:05:31;0.40;;;0.40;;
22449;SDS011;11392;57.390;-2.468;2023-03-01T09:08:03;1.60;;;0.50;;
22449;SDS011;11392;57.390;-2.468;2023-03-01T09:10:30;4.22;;;0.60;;
22449;SDS011;11392;57.390;-2.468;2023-03-01T09:12:57;2.90;;;0.60;;
22449;SDS011;11392;57.390;-2.468;2023-03-01T09:15:24;1.08;;;0.30;;
22449;SDS011;11392;57.390;-2.468;2023-03-01T09:17:51;2.83;;;0.88;;
22449;SDS011;11392;57.390;-2.468;2023-03-01T09:20:18;1.05;;;0.68;;
22449;SDS011;11392;57.390;-2.468;2023-03-01T09:22:45;2.65;;;0.70;;
22449;SDS011;11392;57.390;-2.468;2023-03-01T09:25:13;2.58;;;0.80;;
22449;SDS011;11392;57.390;-2.468;2023-03-01T09:27:40;1.58;;;0.60;;
22449;SDS011;11392;57.390;-2.468;2023-03-01T09:30:07;3.85;;;1.02;;
22449;SDS011;11392;57.390;-2.468;2023-03-01T09:32:35;1.00;;;0.75;;
22449;SDS011;11392;57.390;-2.468;2023-03-01T09:35:02;2.47;;;0.63;;
22449;SDS011;11392;57.390;-2.468;2023-03-01T09:37:33;0.90;;;0.70;;
22449;SDS011;11392;57.390;-2.468;2023-03-01T09:40:02;4.97;;;1.83;;
22449;SDS011;11392;57.390;-2.468;2023-03-01T09:42:34;1.88;;;0.98;;
22449;SDS011;11392;57.390;-2.468;2023-03-01T09:45:05;3.35;;;1.08;;
22449;SDS011;11392;57.390;-2.468;2023-03-01T09:47:38;4.28;;;1.00;;
22449;SDS011;11392;57.390;-2.468;2023-03-01T09:50:11;3.63;;;1.27;;
22449;SDS011;11392;57.390;-2.468;2023-03-01T09:52:45;2.05;;;0.88;;
22449;SDS011;11392;57.390;-2.468;2023-03-01T10:01:16;4.50;;;1.02;;
22449;SDS011;11392;57.390;-2.468;2023-03-01T10:09:34;3.80;;;1.75;;
22449;SDS011;11392;57.390;-2.468;2023-03-01T10:12:04;4.50;;;1.30;;
22449;SDS011;11392;57.390;-2.468;2023-03-01T10:14:55;4.32;;;1.88;;
22449;SDS011;11392;57.390;-2.468;2023-03-01T10:17:48;2.35;;;1.20;;
22449;SDS011;11392;57.390;-2.468;2023-03-01T10:20:23;3.42;;;1.38;;
22449;SDS011;11392;57.390;-2.468;2023-03-01T10:23:04;4.63;;;1.25;;
22449;SDS011;11392;57.390;-2.468;2023-03-01T10:25:38;3.40;;;1.42;;
22449;SDS011;11392;57.390;-2.468;2023-03-01T10:31:22;5.53;;;1.40;;
22449;SDS011;11392;57.390;-2.468;2023-03-01T10:33:56;4.03;;;1.45;;
22449;SDS011;11392;57.390;-2.468;2023-03-01T10:36:26;3.13;;;1.15;;
22449;SDS011;11392;57.390;-2.468;2023-03-01T10:38:54;4.38;;;1.30;;
22449;SDS011;11392;57.390;-2.468;2023-03-01T10:41:24;3.40;;;1.38;;
22449;SDS011;11392;57.390;-2.468;2023-03-01T10:43:53;3.65;;;1.23;;
22449;SDS011;11392;57.390;-2.468;2023-03-01T10:46:23;4.30;;;1.40;;
22449;SDS011;11392;57.390;-2.468;2023-03-01T10:49:09;5.80;;;1.52;;
22449;SDS011;11392;57.390;-2.468;2023-03-01T10:51:47;6.18;;;1.50;;
22449;SDS011;11392;57.390;-2.468;2023-03-01T10:54:20;5.97;;;1.35;;
22449;SDS011;11392;57.390;-2.468;2023-03-01T10:56:54;5.65;;;1.60;;
22449;SDS011;11392;57.390;-2.468;2023-03-01T10:59:27;2.97;;;1.40;;
22449;SDS011;11392;57.390;-2.468;2023-03-01T11:02:04;2.03;;;1.10;;
22449;SDS011;11392;57.390;-2.468;2023-03-01T11:05:02;5.55;;;1.65;;
22449;SDS011;11392;57.390;-2.468;2023-03-01T11:07:48;3.13;;;1.38;;
22449;SDS011;11392;57.390;-2.468;2023-03-01T11:10:27;4.18;;;1.40;;
22449;SDS011;11392;57.390;-2.468;2023-03-01T11:13:16;5.82;;;1.63;;
22449;SDS011;11392;57.390;-2.468;2023-03-01T11:16:05;4.55;;;1.58;;
22449;SDS011;11392;57.390;-2.468;2023-03-01T11:18:36;2.50;;;1.40;;
22449;SDS011;11392;57.390;-2.468;2023-03-01T11:21:13;4.93;;;2.20;;
22449;SDS011;11392;57.390;-2.468;2023-03-01T11:23:41;2.90;;;1.13;;
22449;SDS011;11392;57.390;-2.468;2023-03-01T11:26:12;2.90;;;1.48;;
22449;SDS011;11392;57.390;-2.468;2023-03-01T11:28:41;4.03;;;1.30;;
22449;SDS011;11392;57.390;-2.468;2023-03-01T11:31:11;3.88;;;1.10;;
22449;SDS011;11392;57.390;-2.468;2023-03-01T11:33:49;4.30;;;1.77;;
22449;SDS011;11392;57.390;-2.468;2023-03-01T11:45:25;1.88;;;1.30;;
22449;SDS011;11392;57.390;-2.468;2023-03-01T11:48:17;2.95;;;1.30;;
22449;SDS011;11392;57.390;-2.468;2023-03-01T11:50:51;5.68;;;1.40;;
22449;SDS011;11392;57.390;-2.468;2023-03-01T12:02:10;2.65;;;1.30;;
22449;SDS011;11392;57.390;-2.468;2023-03-01T12:05:39;3.22;;;1.33;;
22449;SDS011;11392;57.390;-2.468;2023-03-01T12:13:19;2.60;;;1.23;;
22449;SDS011;11392;57.390;-2.468;2023-03-01T12:19:53;1.75;;;1.02;;
22449;SDS011;11392;57.390;-2.468;2023-03-01T12:33:25;8.07;;;1.30;;
22449;SDS011;11392;57.390;-2.468;2023-03-01T12:36:15;3.72;;;0.90;;
22449;SDS011;11392;57.390;-2.468;2023-03-01T12:44:39;3.05;;;1.02;;
22449;SDS011;11392;57.390;-2.468;2023-03-01T12:47:24;5.75;;;2.15;;
22449;SDS011;11392;57.390;-2.468;2023-03-01T12:50:19;5.68;;;1.92;;
22449;SDS011;11392;57.390;-2.468;2023-03-01T12:55:27;4.53;;;1.13;;
22449;SDS011;11392;57.390;-2.468;2023-03-01T12:58:45;2.45;;;1.65;;
22449;SDS011;11392;57.390;-2.468;2023-03-01T13:07:02;4.40;;;1.35;;
22449;SDS011;11392;57.390;-2.468;2023-03-01T13:17:50;4.65;;;1.33;;
22449;SDS011;11392;57.390;-2.468;2023-03-01T13:21:05;4.93;;;1.40;;
22449;SDS011;11392;57.390;-2.468;2023-03-01T13:33:45;0.80;;;0.80;;
22449;SDS011;11392;57.390;-2.468;2023-03-01T13:38:59;5.20;;;1.23;;
22449;SDS011;11392;57.390;-2.468;2023-03-01T13:47:35;3.97;;;1.42;;
22449;SDS011;11392;57.390;-2.468;2023-03-01T13:55:52;2.78;;;1.38;;
22449;SDS011;11392;57.390;-2.468;2023-03-01T13:58:05;7.22;;;1.65;;
22449;SDS011;11392;57.390;-2.468;2023-03-01T14:01:01;4.05;;;1.67;;
22449;SDS011;11392;57.390;-2.468;2023-03-01T14:03:31;2.95;;;1.38;;
22449;SDS011;11392;57.390;-2.468;2023-03-01T14:08:46;6.82;;;1.60;;
22449;SDS011;11392;57.390;-2.468;2023-03-01T14:16:58;5.28;;;2.13;;
22449;SDS011;11392;57.390;-2.468;2023-03-01T14:19:30;5.40;;;1.60;;
22449;SDS011;11392;57.390;-2.468;2023-03-01T14:24:50;2.92;;;1.40;;
22449;SDS011;11392;57.390;-2.468;2023-03-01T14:27:20;3.92;;;1.63;;
22449;SDS011;11392;57.390;-2.468;2023-03-01T14:30:00;5.15;;;1.70;;
22449;SDS011;11392;57.390;-2.468;2023-03-01T14:32:30;4.82;;;1.60;;
22449;SDS011;11392;57.390;-2.468;2023-03-01T14:34:59;3.42;;;1.90;;
22449;SDS011;11392;57.390;-2.468;2023-03-01T14:39:55;5.97;;;2.22;;
22449;SDS011;11392;57.390;-2.468;2023-03-01T14:42:24;6.25;;;2.65;;
22449;SDS011;11392;57.390;-2.468;2023-03-01T14:44:55;6.15;;;1.90;;
22449;SDS011;11392;57.390;-2.468;2023-03-01T14:47:34;3.88;;;1.30;;
22449;SDS011;11392;57.390;-2.468;2023-03-01T14:50:24;5.20;;;1.95;;
22449;SDS011;11392;57.390;-2.468;2023-03-01T14:53:04;2.38;;;1.13;;
22449;SDS011;11392;57.390;-2.468;2023-03-01T14:56:18;5.22;;;1.45;;
22449;SDS011;11392;57.390;-2.468;2023-03-01T14:58:53;3.53;;;1.50;;
22449;SDS011;11392;57.390;-2.468;2023-03-01T15:01:25;6.10;;;2.00;;
22449;SDS011;11392;57.390;-2.468;2023-03-01T15:03:54;7.85;;;1.80;;
22449;SDS011;11392;57.390;-2.468;2023-03-01T15:06:22;5.28;;;1.58;;
22449;SDS011;11392;57.390;-2.468;2023-03-01T15:08:51;4.38;;;1.58;;
22449;SDS011;11392;57.390;-2.468;2023-03-01T15:11:49;4.13;;;1.42;;
22449;SDS011;11392;57.390;-2.468;2023-03-01T15:14:26;5.70;;;1.73;;
22449;SDS011;11392;57.390;-2.468;2023-03-01T15:16:59;7.10;;;2.00;;
22449;SDS011;11392;57.390;-2.468;2023-03-01T15:19:28;8.48;;;3.83;;
22449;SDS011;11392;57.390;-2.468;2023-03-01T15:22:03;5.13;;;2.33;;
22449;SDS011;11392;57.390;-2.468;2023-03-01T15:24:41;6.07;;;2.10;;
22449;SDS011;11392;57.390;-2.468;2023-03-01T15:27:15;3.90;;;1.80;;
22449;SDS011;11392;57.390;-2.468;2023-03-01T15:29:58;5.35;;;1.67;;
22449;SDS011;11392;57.390;-2.468;2023-03-01T15:32:33;5.20;;;1.80;;
22449;SDS011;11392;57.390;-2.468;2023-03-01T15:41:00;3.38;;;1.67;;
22449;SDS011;11392;57.390;-2.468;2023-03-01T15:43:40;4.65;;;1.70;;
22449;SDS011;11392;57.390;-2.468;2023-03-01T15:46:15;3.65;;;1.85;;
22449;SDS011;11392;57.390;-2.468;2023-03-01T15:48:52;6.32;;;2.22;;
22449;SDS011;11392;57.390;-2.468;2023-03-01T15:51:33;4.20;;;1.52;;
22449;SDS011;11392;57.390;-2.468;2023-03-01T15:54:17;5.78;;;1.15;;
22449;SDS011;11392;57.390;-2.468;2023-03-01T15:56:46;5.63;;;1.55;;
22449;SDS011;11392;57.390;-2.468;2023-03-01T15:59:14;7.05;;;1.95;;
22449;SDS011;11392;57.390;-2.468;2023-03-01T16:01:41;6.03;;;2.03;;
22449;SDS011;11392;57.390;-2.468;2023-03-01T16:04:12;4.45;;;1.30;;
22449;SDS011;11392;57.390;-2.468;2023-03-01T16:06:49;3.55;;;1.33;;
22449;SDS011;11392;57.390;-2.468;2023-03-01T16:09:25;3.83;;;1.58;;
22449;SDS011;11392;57.390;-2.468;2023-03-01T16:11:52;3.42;;;1.40;;
22449;SDS011;11392;57.390;-2.468;2023-03-01T16:14:20;4.75;;;1.50;;
22449;SDS011;11392;57.390;-2.468;2023-03-01T16:16:48;4.22;;;1.50;;
22449;SDS011;11392;57.390;-2.468;2023-03-01T16:19:15;7.85;;;2.97;;
22449;SDS011;11392;57.390;-2.468;2023-03-01T16:21:42;4.57;;;1.50;;
22449;SDS011;11392;57.390;-2.468;2023-03-01T16:24:13;2.22;;;1.23;;
22449;SDS011;11392;57.390;-2.468;2023-03-01T16:26:43;2.97;;;1.48;;
22449;SDS011;11392;57.390;-2.468;2023-03-01T16:29:10;2.80;;;1.48;;
22449;SDS011;11392;57.390;-2.468;2023-03-01T16:31:37;5.65;;;1.88;;
22449;SDS011;11392;57.390;-2.468;2023-03-01T16:34:05;5.20;;;2.15;;
22449;SDS011;11392;57.390;-2.468;2023-03-01T16:36:32;5.35;;;1.55;;
22449;SDS011;11392;57.390;-2.468;2023-03-01T16:38:59;4.97;;;2.65;;
22449;SDS011;11392;57.390;-2.468;2023-03-01T16:41:27;3.00;;;1.75;;
22449;SDS011;11392;57.390;-2.468;2023-03-01T16:43:55;3.05;;;1.60;;
22449;SDS011;11392;57.390;-2.468;2023-03-01T16:46:23;4.32;;;1.42;;
22449;SDS011;11392;57.390;-2.468;2023-03-01T16:48:52;3.55;;;1.40;;
22449;SDS011;11392;57.390;-2.468;2023-03-01T16:51:20;3.65;;;1.20;;
22449;SDS011;11392;57.390;-2.468;2023-03-01T16:53:52;3.95;;;1.35;;
22449;SDS011;11392;57.390;-2.468;2023-03-01T16:56:19;5.10;;;1.75;;
22449;SDS011;11392;57.390;-2.468;2023-03-01T16:58:47;3.65;;;1.67;;
22449;SDS011;11392;57.390;-2.468;2023-03-01T17:01:16;4.15;;;1.77;;
22449;SDS011;11392;57.390;-2.468;2023-03-01T17:03:46;4.40;;;1.85;;
22449;SDS011;11392;57.390;-2.468;2023-03-01T17:06:18;4.75;;;2.38;;
22449;SDS011;11392;57.390;-2.468;2023-03-01T17:08:51;5.93;;;1.85;;
22449;SDS011;11392;57.390;-2.468;2023-03-01T17:11:18;4.47;;;2.00;;
22449;SDS011;11392;57.390;-2.468;2023-03-01T17:13:46;7.15;;;2.45;;